Terminal Aerodrome Forecast
Issued by NWS Twin Cities, MN

Current Version | Previous Version | Text Only | Print | Product List | Glossary On
Versions: 1 2 3 4 5 6 7 8 9 10 11 12 13 14 15 16 17 18 19 20
398
FTUS43 KMPX 081513 AAA
TAFSTC
TAF AMD
KSTC 081513Z 0815/0912 30014KT P6SM SCT020 BKN090
     FM081700 31015G22KT P6SM BKN025 BKN050
     FM090000 32011KT P6SM BKN022=

USA.gov is the U.S. government's official web portal to all federal, state and local government web resources and services.